Time;durP1;ratioP1;P1;durP2;ratioP2;P2;SDS_P1;SDS_P2;PMS_P1;PMS_P2;Temp;Humidity;BMP_temperature;BMP_pressure;BME280_temperature;BME280_humidity;BME280_pressure;Samples;Min_cycle;Max_cycle;Signal;HPM_P1;HPM_P2
2021/09/09 00:00:46;;;;;;;22.15;15.85;;;;;;;17.16;81.24;101200.41;4859126;29;20061;-77
2021/09/09 00:03:12;;;;;;;20.38;15.25;;;;;;;17.13;81.09;101195.25;4859449;29;20052;-76
2021/09/09 00:05:37;;;;;;;23.90;16.40;;;;;;;17.11;81.55;101191.81;4858841;29;20198;-66
2021/09/09 00:08:03;;;;;;;22.65;15.40;;;;;;;17.13;81.03;101194.41;4857980;29;20339;-71
2021/09/09 00:10:29;;;;;;;21.83;15.13;;;;;;;17.13;80.73;101202.41;4859314;29;20466;-78
2021/09/09 00:12:54;;;;;;;19.80;14.77;;;;;;;17.13;80.37;101197.06;4859749;29;20033;-78
2021/09/09 00:15:20;;;;;;;22.08;14.50;;;;;;;17.10;80.41;101206.16;4859740;29;20058;-75
2021/09/09 00:17:45;;;;;;;23.52;14.75;;;;;;;17.15;80.07;101197.84;4858132;29;20041;-67
2021/09/09 00:20:11;;;;;;;21.38;15.30;;;;;;;17.15;79.57;101187.97;4857155;29;20065;-69
2021/09/09 00:22:37;;;;;;;19.77;13.77;;;;;;;17.12;79.22;101193.53;4840241;29;20075;-70
2021/09/09 00:25:04;;;;;;;19.67;14.82;;;;;;;17.08;79.94;101194.69;4858667;29;20503;-65
2021/09/09 00:27:29;;;;;;;18.55;13.85;;;;;;;17.00;80.38;101179.16;4841053;29;20029;-73
2021/09/09 00:29:54;;;;;;;21.40;15.10;;;;;;;16.96;80.30;101187.50;4858161;29;20025;-68
2021/09/09 00:32:20;;;;;;;22.23;15.27;;;;;;;16.96;80.46;101183.00;4858357;29;20105;-73
2021/09/09 00:34:45;;;;;;;20.45;14.65;;;;;;;16.96;80.68;101184.81;4865229;29;20021;-70
2021/09/09 00:37:10;;;;;;;20.33;14.73;;;;;;;16.98;80.11;101178.41;4860424;29;20064;-77
2021/09/09 00:39:36;;;;;;;22.30;15.50;;;;;;;16.97;80.80;101175.81;4873282;29;20465;-68
2021/09/09 00:42:01;;;;;;;21.95;15.85;;;;;;;16.97;81.08;101181.16;4859091;29;20037;-73
2021/09/09 00:44:28;;;;;;;22.35;14.80;;;;;;;17.00;81.65;101180.97;4861137;29;20052;-69
2021/09/09 00:47:00;;;;;;;20.40;14.75;;;;;;;17.04;80.60;101179.81;4872510;29;20073;-66
2021/09/09 00:49:26;;;;;;;22.58;15.73;;;;;;;17.04;80.68;101172.63;4858005;29;20042;-68
2021/09/09 00:51:51;;;;;;;22.38;15.00;;;;;;;17.07;80.21;101170.72;4858995;29;20125;-69
2021/09/09 00:54:16;;;;;;;24.83;16.38;;;;;;;17.10;79.79;101170.53;4858759;29;20419;-67
2021/09/09 00:56:42;;;;;;;23.48;15.10;;;;;;;17.10;79.53;101167.84;4860059;29;20049;-71
2021/09/09 00:59:07;;;;;;;22.20;16.23;;;;;;;17.02;79.52;101161.19;4858956;29;20112;-69
2021/09/09 01:01:33;;;;;;;23.73;16.60;;;;;;;16.96;80.90;101152.72;4857465;29;20096;-75
2021/09/09 01:03:58;;;;;;;22.63;16.48;;;;;;;16.92;80.02;101151.19;4858502;29;20048;-67
2021/09/09 01:06:24;;;;;;;26.23;16.73;;;;;;;16.90;80.99;101143.25;4859279;29;20030;-74
2021/09/09 01:08:49;;;;;;;22.95;16.67;;;;;;;16.95;79.88;101153.69;4857444;29;20029;-78
2021/09/09 01:11:15;;;;;;;23.17;16.50;;;;;;;16.92;80.49;101146.72;4858436;29;20112;-76
2021/09/09 01:13:52;;;;;;;23.83;16.92;;;;;;;16.94;80.16;101142.09;4858077;29;20025;-78
2021/09/09 01:16:18;;;;;;;21.85;15.85;;;;;;;16.95;80.23;101137.63;4857398;29;20505;-78
2021/09/09 01:18:43;;;;;;;24.35;17.35;;;;;;;16.95;80.55;101146.50;4859525;29;20052;-76
2021/09/09 01:21:09;;;;;;;23.65;17.67;;;;;;;16.98;80.69;101140.97;4857314;29;20049;-76
2021/09/09 01:23:36;;;;;;;25.73;17.13;;;;;;;17.00;79.93;101136.34;4857433;29;20490;-77
2021/09/09 01:26:03;;;;;;;23.85;16.73;;;;;;;16.96;79.04;101136.69;4857555;29;20100;-77
2021/09/09 01:28:29;;;;;;;24.08;16.58;;;;;;;16.85;79.77;101140.88;4858971;29;20038;-77
2021/09/09 01:30:54;;;;;;;24.90;16.73;;;;;;;16.75;79.98;101131.72;4858037;29;20513;-78
2021/09/09 01:33:20;;;;;;;24.80;16.45;;;;;;;16.69;80.42;101135.69;4858171;29;20112;-78
2021/09/09 01:35:47;;;;;;;24.75;17.00;;;;;;;16.62;80.79;101137.03;4858259;29;20132;-77
2021/09/09 01:38:22;;;;;;;23.20;17.15;;;;;;;16.57;80.95;101139.16;4862154;29;20125;-78
2021/09/09 01:40:48;;;;;;;26.55;17.15;;;;;;;16.52;81.26;101128.78;4861593;29;20030;-78
2021/09/09 01:43:13;;;;;;;24.55;16.92;;;;;;;16.49;81.85;101130.78;4862083;29;20443;-74
2021/09/09 01:45:39;;;;;;;27.20;18.02;;;;;;;16.45;81.81;101130.13;4860854;29;20113;-77
2021/09/09 01:48:04;;;;;;;28.10;18.25;;;;;;;16.41;81.96;101133.97;4872537;29;20025;-73
2021/09/09 01:50:30;;;;;;;28.02;17.35;;;;;;;16.37;81.62;101132.47;4872347;29;20030;-78
2021/09/09 01:52:55;;;;;;;25.25;17.05;;;;;;;16.37;82.20;101135.13;4866074;29;20136;-77
2021/09/09 01:55:21;;;;;;;25.40;16.52;;;;;;;16.35;82.00;101139.72;4878790;29;20085;-78
2021/09/09 01:57:46;;;;;;;25.85;17.88;;;;;;;16.33;81.79;101134.47;4876266;29;20089;-77
2021/09/09 02:00:12;;;;;;;25.38;17.90;;;;;;;16.29;82.09;101132.94;4862250;29;20037;-77
2021/09/09 02:02:38;;;;;;;27.15;18.23;;;;;;;16.27;81.87;101134.84;4860119;29;20081;-74
2021/09/09 02:05:04;;;;;;;26.20;18.50;;;;;;;16.24;82.31;101124.38;4861192;29;20116;-79
2021/09/09 02:07:29;;;;;;;28.42;19.08;;;;;;;16.22;82.47;101124.44;4860786;29;20116;-73
2021/09/09 02:09:55;;;;;;;28.58;18.08;;;;;;;16.25;82.04;101134.09;4875215;29;20490;-78
2021/09/09 02:12:20;;;;;;;28.20;19.17;;;;;;;16.25;82.00;101130.56;4880272;29;20071;-77
2021/09/09 02:14:45;;;;;;;26.85;18.30;;;;;;;16.24;82.32;101124.38;4869904;29;20133;-75
2021/09/09 02:17:11;;;;;;;28.08;19.08;;;;;;;16.23;81.93;101133.34;4861362;29;20045;-76
2021/09/09 02:19:36;;;;;;;31.13;19.42;;;;;;;16.22;82.02;101127.13;4862142;29;20057;-77
2021/09/09 02:22:03;;;;;;;30.48;20.58;;;;;;;16.19;82.00;101122.00;4861262;29;20194;-76
2021/09/09 02:24:29;;;;;;;28.48;18.45;;;;;;;16.18;82.62;101128.28;4859887;29;20032;-78
2021/09/09 02:26:54;;;;;;;28.88;19.73;;;;;;;16.19;82.42;101131.84;4860745;29;20406;-78
2021/09/09 02:29:19;;;;;;;32.83;21.08;;;;;;;16.18;82.28;101138.97;4861407;29;20086;-75
2021/09/09 02:31:45;;;;;;;29.17;17.95;;;;;;;16.20;82.04;101130.84;4861405;29;20037;-76
2021/09/09 02:34:10;;;;;;;28.33;20.30;;;;;;;16.18;81.91;101138.97;4860884;29;20034;-71
2021/09/09 02:36:35;;;;;;;28.95;20.92;;;;;;;16.21;82.25;101130.78;4860083;29;20101;-71
2021/09/09 02:39:01;;;;;;;32.55;21.55;;;;;;;16.26;82.49;101126.94;4860219;29;20039;-77
2021/09/09 02:41:27;;;;;;;31.73;19.65;;;;;;;16.29;81.92;101129.41;4861798;29;20527;-77
2021/09/09 02:43:52;;;;;;;28.55;19.35;;;;;;;16.25;81.92;101131.41;4861094;29;20042;-76
2021/09/09 02:46:17;;;;;;;30.27;20.55;;;;;;;16.21;81.93;101125.44;4843481;29;20026;-74
2021/09/09 02:48:43;;;;;;;29.63;22.25;;;;;;;16.19;81.87;101122.00;4858853;29;20056;-77
2021/09/09 02:51:08;;;;;;;32.08;21.20;;;;;;;16.17;81.84;101120.38;4861393;29;20033;-76
2021/09/09 02:53:33;;;;;;;32.63;20.98;;;;;;;16.15;81.69;101116.94;4866499;29;20033;-77
2021/09/09 02:55:59;;;;;;;29.48;20.73;;;;;;;16.13;82.23;101110.84;4869996;29;20060;-74
2021/09/09 02:58:24;;;;;;;33.20;22.25;;;;;;;16.11;82.31;101110.91;4861527;29;20034;-76
2021/09/09 03:00:49;;;;;;;36.83;22.90;;;;;;;16.09;81.71;101106.63;4859897;29;20470;-75
2021/09/09 03:03:15;;;;;;;33.58;21.75;;;;;;;16.07;81.87;101109.41;4861824;29;20025;-74
2021/09/09 03:05:40;;;;;;;34.67;23.00;;;;;;;16.04;82.39;101109.63;4859954;29;20045;-77
2021/09/09 03:08:05;;;;;;;36.45;22.60;;;;;;;16.01;83.24;101105.31;4859262;29;20033;-75
2021/09/09 03:10:31;;;;;;;32.92;21.52;;;;;;;16.03;82.17;101099.88;4843253;29;20033;-69
2021/09/09 03:12:56;;;;;;;33.67;22.55;;;;;;;16.02;82.35;101101.72;4860902;29;20073;-78
2021/09/09 03:15:22;;;;;;;35.30;21.75;;;;;;;16.06;81.91;101094.31;4843694;29;20033;-75
2021/09/09 03:17:47;;;;;;;30.20;21.05;;;;;;;16.00;81.97;101094.75;4858672;29;20549;-75
2021/09/09 03:20:13;;;;;;;31.80;22.08;;;;;;;15.93;82.75;101096.06;4859379;29;20053;-74
2021/09/09 03:22:38;;;;;;;34.30;22.13;;;;;;;15.90;82.33;101078.44;4860811;29;20041;-77
2021/09/09 03:25:04;;;;;;;34.03;24.08;;;;;;;15.87;82.70;101078.66;4861275;29;20454;-73
2021/09/09 03:27:29;;;;;;;37.72;24.10;;;;;;;15.87;83.27;101086.66;4858992;29;20033;-69
2021/09/09 03:29:54;;;;;;;39.60;23.33;;;;;;;15.91;82.58;101085.50;4859568;29;20041;-77
2021/09/09 03:32:20;;;;;;;33.08;21.13;;;;;;;15.86;82.65;101085.78;4860012;29;20108;-77
2021/09/09 03:34:45;;;;;;;30.50;21.25;;;;;;;15.86;82.43;101087.59;4860322;29;20321;-75
2021/09/09 03:37:10;;;;;;;33.60;21.92;;;;;;;15.82;82.74;101089.59;4860081;29;20436;-74
2021/09/09 03:39:36;;;;;;;31.58;21.60;;;;;;;15.80;83.14;101099.47;4858806;29;20030;-69
2021/09/09 03:42:01;;;;;;;39.95;25.90;;;;;;;15.81;83.40;101105.69;4859705;29;20033;-72
2021/09/09 03:44:27;;;;;;;32.60;23.17;;;;;;;15.83;82.91;101102.00;4861254;29;20360;-77
2021/09/09 03:46:52;;;;;;;32.75;23.98;;;;;;;15.84;82.61;101093.06;4858795;29;20423;-69
2021/09/09 03:49:17;;;;;;;32.58;22.30;;;;;;;15.85;82.44;101101.91;4859316;29;20447;-74
2021/09/09 03:51:43;;;;;;;40.67;25.35;;;;;;;15.82;82.96;101099.41;4859611;29;20037;-76
2021/09/09 03:54:08;;;;;;;37.60;23.60;;;;;;;15.80;82.78;101093.28;4858029;29;20514;-72
2021/09/09 03:56:33;;;;;;;35.45;23.20;;;;;;;15.73;82.42;101090.16;4859292;29;20085;-74
2021/09/09 03:58:59;;;;;;;32.65;23.05;;;;;;;15.69;83.54;101091.28;4858786;29;20094;-77
2021/09/09 04:01:24;;;;;;;35.85;24.80;;;;;;;15.65;83.70;101090.63;4859384;29;20121;-76
2021/09/09 04:03:50;;;;;;;35.40;24.08;;;;;;;15.65;83.49;101095.09;4860032;29;20025;-77
2021/09/09 04:06:15;;;;;;;33.83;23.92;;;;;;;15.59;83.47;101075.00;4859819;29;20036;-72
2021/09/09 04:08:40;;;;;;;36.42;24.75;;;;;;;15.52;83.95;101079.84;4840747;29;20059;-72
2021/09/09 04:11:06;;;;;;;37.70;24.95;;;;;;;15.50;83.82;101089.78;4858766;29;20188;-77
2021/09/09 04:13:31;;;;;;;36.17;24.15;;;;;;;15.49;84.23;101084.53;4858943;29;20113;-76
2021/09/09 04:15:57;;;;;;;36.72;24.33;;;;;;;15.50;83.96;101086.22;4859108;29;20037;-73
2021/09/09 04:18:22;;;;;;;33.42;23.30;;;;;;;15.49;83.63;101080.03;4873118;29;20080;-72
2021/09/09 04:20:47;;;;;;;37.40;24.70;;;;;;;15.49;83.74;101081.88;4859077;29;20050;-76
2021/09/09 04:23:13;;;;;;;38.53;24.77;;;;;;;15.47;84.08;101079.25;4858566;29;20113;-72
2021/09/09 04:25:38;;;;;;;37.72;25.33;;;;;;;15.45;84.06;101073.19;4862616;29;20025;-72
2021/09/09 04:28:04;;;;;;;37.85;26.05;;;;;;;15.47;84.45;101079.25;4847567;29;20060;-75
2021/09/09 04:30:29;;;;;;;38.90;25.23;;;;;;;15.50;83.83;101064.88;4860513;29;20121;-73
2021/09/09 04:32:54;;;;;;;34.20;24.58;;;;;;;15.48;83.92;101062.31;4859077;29;20025;-68
2021/09/09 04:35:20;;;;;;;36.63;24.70;;;;;;;15.46;84.07;101060.69;4859437;29;20025;-77
2021/09/09 04:37:45;;;;;;;34.40;23.58;;;;;;;15.45;84.13;101058.97;4860593;29;20427;-75
2021/09/09 04:40:11;;;;;;;37.20;25.42;;;;;;;15.43;83.87;101053.72;4857510;29;20033;-75
2021/09/09 04:42:36;;;;;;;37.17;25.20;;;;;;;15.35;84.21;101042.69;4858369;29;20072;-73
2021/09/09 04:45:02;;;;;;;37.55;26.05;;;;;;;15.35;84.43;101042.69;4858869;29;20447;-75
2021/09/09 04:47:28;;;;;;;39.92;24.70;;;;;;;15.32;84.17;101041.06;4858041;29;20061;-72
2021/09/09 04:49:54;;;;;;;38.20;25.30;;;;;;;15.26;84.59;101038.78;4858748;29;20109;-70
2021/09/09 04:52:19;;;;;;;38.08;25.92;;;;;;;15.29;84.17;101043.06;4858578;29;20466;-66
2021/09/09 04:54:44;;;;;;;40.83;26.60;;;;;;;15.23;84.52;101038.97;4857387;29;20041;-66
2021/09/09 04:57:10;;;;;;;41.15;27.63;;;;;;;15.21;85.08;101041.69;4856668;29;20037;-71
2021/09/09 04:59:35;;;;;;;38.70;26.40;;;;;;;15.27;85.37;101039.63;4860292;29;20134;-76
2021/09/09 05:02:00;;;;;;;39.75;26.17;;;;;;;15.33;84.67;101033.91;4857764;29;20386;-73
2021/09/09 05:04:26;;;;;;;34.50;24.05;;;;;;;15.36;83.73;101042.59;4858034;29;20125;-73
2021/09/09 05:06:51;;;;;;;37.03;26.05;;;;;;;15.34;83.66;101039.13;4857867;29;20033;-77
2021/09/09 05:09:16;;;;;;;41.65;27.55;;;;;;;15.33;84.03;101029.44;4856936;29;20388;-75
2021/09/09 05:11:41;;;;;;;39.90;26.73;;;;;;;15.31;84.24;101026.00;4860882;29;20029;-71
2021/09/09 05:14:07;;;;;;;39.08;27.58;;;;;;;15.32;84.26;101030.38;4862130;29;20105;-72
2021/09/09 05:16:33;;;;;;;36.60;26.17;;;;;;;15.35;84.04;101032.00;4861625;29;20522;-67
2021/09/09 05:18:58;;;;;;;36.13;25.52;;;;;;;15.37;83.75;101027.41;4860247;29;20128;-68
2021/09/09 05:21:23;;;;;;;41.92;27.80;;;;;;;15.37;83.71;101025.63;4862387;29;20116;-67
2021/09/09 05:23:48;;;;;;;38.75;26.27;;;;;;;15.37;84.00;101019.41;4861291;29;20037;-68
2021/09/09 05:26:14;;;;;;;38.97;25.25;;;;;;;15.39;83.76;101031.72;4861055;29;20041;-73
2021/09/09 05:28:39;;;;;;;38.50;27.20;;;;;;;15.47;83.81;101031.22;4862602;29;20094;-77
2021/09/09 05:31:05;;;;;;;39.83;28.05;;;;;;;15.53;84.14;101038.00;4862324;29;20025;-71
2021/09/09 05:33:30;;;;;;;39.85;27.00;;;;;;;15.63;83.44;101044.47;4861710;29;20382;-65
2021/09/09 05:35:55;;;;;;;38.17;27.17;;;;;;;15.71;83.01;101044.84;4844538;29;20487;-69
2021/09/09 05:38:21;;;;;;;40.00;25.67;;;;;;;15.79;82.81;101038.16;4861080;29;20033;-69
2021/09/09 05:40:49;;;;;;;38.65;26.27;;;;;;;15.85;81.66;101035.16;4859806;29;20527;-71
2021/09/09 05:43:15;;;;;;;40.90;27.17;;;;;;;15.91;82.33;101033.88;4861097;29;20116;-69
2021/09/09 05:45:40;;;;;;;38.00;25.92;;;;;;;16.01;81.92;101040.34;4860487;29;20029;-77
2021/09/09 05:48:05;;;;;;;39.00;26.80;;;;;;;16.13;80.36;101030.69;4861302;29;20082;-67
2021/09/09 05:50:31;;;;;;;39.00;26.20;;;;;;;16.22;80.02;101028.25;4862151;29;20033;-69
2021/09/09 05:52:56;;;;;;;34.67;25.05;;;;;;;16.27;80.35;101019.09;4863934;29;20037;-76
2021/09/09 05:55:21;;;;;;;33.47;23.75;;;;;;;16.26;80.41;101020.91;4845049;29;20053;-77
2021/09/09 05:57:47;;;;;;;32.55;24.38;;;;;;;16.26;80.69;101020.06;4845578;29;20041;-76
2021/09/09 06:00:13;;;;;;;36.78;25.50;;;;;;;16.28;80.88;101023.47;4853924;29;20043;-71
2021/09/09 06:02:47;;;;;;;37.42;25.77;;;;;;;16.31;81.31;101033.97;4849805;29;20206;-77
2021/09/09 06:05:14;;;;;;;36.70;26.33;;;;;;;16.40;80.03;101036.03;4851114;29;20036;-73
2021/09/09 06:07:40;;;;;;;40.17;25.27;;;;;;;16.52;78.78;101031.66;4834505;29;20057;-75
2021/09/09 06:10:07;;;;;;;35.10;24.08;;;;;;;16.64;78.09;101035.38;4843820;29;20026;-77
2021/09/09 06:12:33;;;;;;;33.17;22.80;;;;;;;16.66;78.58;101026.28;4856863;29;20042;-76
2021/09/09 06:14:58;;;;;;;36.88;26.73;;;;;;;16.66;79.68;101031.63;4862252;29;20132;-77
2021/09/09 06:17:23;;;;;;;34.55;24.88;;;;;;;16.73;78.86;101023.16;4862509;29;20487;-77
2021/09/09 06:19:49;;;;;;;35.15;24.40;;;;;;;16.78;78.59;101019.22;4862388;29;20053;-77
2021/09/09 06:22:14;;;;;;;35.63;24.50;;;;;;;16.81;79.06;101023.50;4864815;29;20085;-76
2021/09/09 06:24:40;;;;;;;38.97;26.05;;;;;;;16.92;78.43;101025.47;4867651;29;20030;-74
2021/09/09 06:27:05;;;;;;;34.88;24.23;;;;;;;17.03;77.67;101034.50;4855665;29;20033;-73
2021/09/09 06:29:30;;;;;;;34.65;23.63;;;;;;;17.13;77.53;101028.50;4844784;29;20022;-71
2021/09/09 06:31:56;;;;;;;28.98;21.10;;;;;;;17.20;76.97;101029.78;4861930;29;20025;-77
2021/09/09 06:34:21;;;;;;;41.03;23.00;;;;;;;17.27;77.58;101028.38;4862232;29;20124;-73
2021/09/09 06:36:47;;;;;;;33.53;23.08;;;;;;;17.33;76.66;101019.91;4863384;29;20033;-73
2021/09/09 06:39:14;;;;;;;33.50;23.80;;;;;;;17.43;76.41;101024.63;4861858;29;20092;-74
2021/09/09 06:41:40;;;;;;;37.45;25.33;;;;;;;17.51;76.49;101027.63;4861863;29;20093;-72
2021/09/09 06:44:06;;;;;;;38.90;23.17;;;;;;;17.71;74.43;101020.84;4860939;29;20025;-77
2021/09/09 06:46:32;;;;;;;30.75;22.27;;;;;;;17.87;73.30;101023.25;4862133;29;20055;-72
2021/09/09 06:48:57;;;;;;;33.13;23.63;;;;;;;18.01;72.91;101035.66;4861659;29;20040;-78
2021/09/09 06:51:23;;;;;;;31.02;22.55;;;;;;;18.14;71.72;101049.03;4861968;29;20037;-77
2021/09/09 06:53:49;;;;;;;33.83;23.48;;;;;;;18.21;71.23;101065.50;4861675;29;20026;-77
2021/09/09 06:56:14;;;;;;;34.88;23.20;;;;;;;18.26;71.59;101074.94;4858876;29;20087;-72
2021/09/09 06:58:40;;;;;;;31.00;23.15;;;;;;;18.32;71.25;101068.25;4860164;29;20089;-76
2021/09/09 07:01:05;;;;;;;33.20;23.58;;;;;;;18.43;71.42;101065.63;4860360;29;20430;-77
2021/09/09 07:03:30;;;;;;;31.80;21.63;;;;;;;18.59;70.84;101061.78;4860989;29;20021;-74
2021/09/09 07:05:56;;;;;;;32.97;21.70;;;;;;;18.72;70.07;101061.72;4866482;29;20092;-70
2021/09/09 07:08:22;;;;;;;30.15;21.00;;;;;;;18.86;69.96;101058.00;4860669;29;20113;-77
2021/09/09 07:10:47;;;;;;;28.45;20.55;;;;;;;18.95;69.13;101052.81;4861109;29;20483;-70
2021/09/09 07:13:13;;;;;;;30.65;20.92;;;;;;;19.07;68.52;101047.47;4860565;29;20371;-75
2021/09/09 07:15:38;;;;;;;28.50;21.45;;;;;;;19.14;68.15;101046.88;4861033;29;20101;-77
2021/09/09 07:18:04;;;;;;;30.20;19.88;;;;;;;19.28;68.19;101045.81;4860326;29;20037;-74
2021/09/09 07:20:29;;;;;;;28.50;19.77;;;;;;;19.37;66.70;101044.19;4861503;29;20068;-77
2021/09/09 07:22:55;;;;;;;28.98;19.38;;;;;;;19.51;66.58;101042.25;4861531;29;20040;-76
2021/09/09 07:25:20;;;;;;;28.65;19.80;;;;;;;19.58;65.80;101030.91;4860753;29;20586;-74
2021/09/09 07:27:45;;;;;;;25.88;18.42;;;;;;;19.71;66.63;101028.09;4857031;29;20033;-64
2021/09/09 07:30:11;;;;;;;23.98;17.27;;;;;;;19.88;66.23;101020.53;4853011;29;20808;-76
2021/09/09 07:32:37;;;;;;;27.88;18.15;;;;;;;19.97;64.78;101026.00;4860367;29;20029;-76
2021/09/09 07:35:04;;;;;;;22.98;17.02;;;;;;;20.07;64.32;101038.69;4860231;29;20029;-75
2021/09/09 07:37:29;;;;;;;26.77;16.95;;;;;;;20.17;64.28;101042.31;4860487;29;20044;-77
2021/09/09 07:39:55;;;;;;;24.02;16.10;;;;;;;20.23;63.16;101044.53;4858332;29;20105;-77
2021/09/09 07:42:20;;;;;;;24.98;16.98;;;;;;;20.28;63.35;101036.91;4867068;29;20195;-75
2021/09/09 07:44:45;;;;;;;24.70;16.92;;;;;;;20.42;63.09;101038.47;4856166;29;20066;-77
2021/09/09 07:47:11;;;;;;;25.65;16.10;;;;;;;20.63;63.04;101030.41;4865587;29;20576;-77
2021/09/09 07:49:36;;;;;;;26.50;16.20;;;;;;;20.81;62.01;101042.44;4879821;29;20389;-76
2021/09/09 07:52:02;;;;;;;25.15;17.08;;;;;;;20.94;61.03;101045.81;4879102;29;20117;-77
2021/09/09 07:54:27;;;;;;;25.83;16.33;;;;;;;21.03;60.62;101044.19;4879013;29;20025;-76
2021/09/09 07:56:52;;;;;;;24.48;16.67;;;;;;;21.07;60.85;101049.16;4878024;29;20128;-75
2021/09/09 07:59:18;;;;;;;19.85;15.13;;;;;;;21.09;61.36;101057.97;4868696;29;20056;-78
2021/09/09 08:01:46;;;;;;;21.20;15.02;;;;;;;21.24;61.38;101049.53;4865470;29;20090;-76
2021/09/09 08:04:16;;;;;;;21.42;13.82;;;;;;;21.49;60.65;101052.78;4860791;29;20033;-76
2021/09/09 08:06:45;;;;;;;21.00;14.15;;;;;;;21.73;59.43;101053.34;4860644;29;20132;-78
2021/09/09 08:09:11;;;;;;;21.45;14.18;;;;;;;21.89;58.71;101058.22;4859492;29;20507;-75
2021/09/09 08:11:37;;;;;;;21.05;14.93;;;;;;;22.07;58.19;101058.41;4860637;29;20063;-78
2021/09/09 08:14:03;;;;;;;21.02;14.25;;;;;;;22.29;57.58;101050.19;4860575;29;20033;-75
2021/09/09 08:16:28;;;;;;;23.10;14.70;;;;;;;22.31;57.85;101064.41;4856011;29;20021;-78
2021/09/09 08:18:54;;;;;;;22.27;15.55;;;;;;;22.48;57.18;101066.44;4853304;29;20037;-76
2021/09/09 08:21:19;;;;;;;22.45;15.35;;;;;;;22.56;57.44;101057.66;4867588;29;20059;-78
2021/09/09 08:23:44;;;;;;;25.70;16.90;;;;;;;22.75;56.30;101071.13;4857478;29;20069;-73
2021/09/09 08:26:10;;;;;;;25.77;17.15;;;;;;;22.80;56.02;101072.53;4844357;29;20038;-72
2021/09/09 08:28:37;;;;;;;23.42;16.85;;;;;;;22.91;55.95;101080.50;4860326;29;20075;-72
2021/09/09 08:31:02;;;;;;;24.52;17.77;;;;;;;22.81;56.91;101076.94;4860010;29;20368;-71
2021/09/09 08:33:28;;;;;;;30.42;17.88;;;;;;;22.81;57.25;101080.50;4858941;29;20085;-69
2021/09/09 08:35:53;;;;;;;23.08;16.20;;;;;;;22.87;57.38;101079.91;4856642;29;20371;-78
2021/09/09 08:38:18;;;;;;;26.30;17.63;;;;;;;22.98;56.94;101076.22;4857218;29;20108;-68
2021/09/09 08:40:50;;;;;;;23.27;17.40;;;;;;;22.98;57.33;101073.53;4870638;29;20033;-80
2021/09/09 08:43:16;;;;;;;27.60;17.92;;;;;;;22.91;56.88;101070.53;4876128;29;20481;-79
2021/09/09 08:45:41;;;;;;;22.08;17.20;;;;;;;22.98;57.09;101065.44;4877274;29;20033;-75
2021/09/09 08:48:08;;;;;;;30.33;17.83;;;;;;;22.99;57.13;101067.13;4876752;29;20514;-69
2021/09/09 08:50:34;;;;;;;27.08;18.90;;;;;;;23.08;57.20;101059.97;4867202;29;20072;-73
2021/09/09 08:53:01;;;;;;;25.65;18.13;;;;;;;23.24;57.47;101059.44;4856298;29;20075;-71
2021/09/09 08:55:26;;;;;;;25.33;17.98;;;;;;;23.27;58.72;101061.81;4856983;29;20030;-77
2021/09/09 08:57:51;;;;;;;27.73;18.15;;;;;;;23.36;58.11;101063.66;4859783;29;20044;-70
2021/09/09 09:00:17;;;;;;;26.50;17.50;;;;;;;23.54;56.93;101069.16;4861930;29;20025;-74
2021/09/09 09:02:50;;;;;;;23.60;16.65;;;;;;;23.55;56.52;101073.53;4859120;29;20029;-71
2021/09/09 09:05:16;;;;;;;23.92;17.58;;;;;;;23.35;56.57;101078.16;4841709;29;20041;-81
2021/09/09 09:07:41;;;;;;;24.13;17.77;;;;;;;23.49;57.17;101084.09;4840666;29;20034;-65
2021/09/09 09:10:09;;;;;;;24.20;17.00;;;;;;;23.89;56.30;101075.66;4841749;29;20042;-71
2021/09/09 09:12:44;;;;;;;23.98;17.23;;;;;;;25.00;53.54;101074.59;4858155;29;20088;-66
2021/09/09 09:15:25;;;;;;;24.35;17.33;;;;;;;26.37;49.93;101079.34;4859347;29;20025;-67
2021/09/09 09:18:04;;;;;;;23.20;16.63;;;;;;;27.59;46.88;101068.63;4859218;29;20483;-67
2021/09/09 09:20:41;;;;;;;23.73;16.85;;;;;;;28.32;44.38;101074.72;4857552;29;20517;-65
2021/09/09 09:23:11;;;;;;;23.58;15.88;;;;;;;29.05;42.84;101077.09;4858127;29;20089;-78
2021/09/09 09:25:49;;;;;;;23.77;16.40;;;;;;;29.23;42.43;101085.78;4859514;29;20081;-76
2021/09/09 09:28:16;;;;;;;23.50;15.75;;;;;;;29.00;42.88;101082.25;4859159;29;20034;-69
2021/09/09 09:31:05;;;;;;;23.90;15.75;;;;;;;29.45;43.42;101079.59;4859064;29;20062;-66
2021/09/09 09:33:39;;;;;;;25.50;17.15;;;;;;;29.28;43.67;101078.94;4856890;29;20033;-64
2021/09/09 09:36:38;;;;;;;26.55;17.30;;;;;;;29.86;41.30;101077.22;4858943;29;20034;-65
2021/09/09 09:39:07;;;;;;;25.98;17.35;;;;;;;30.16;40.31;101081.81;4793850;29;20213;-66
2021/09/09 09:41:33;;;;;;;25.40;17.35;;;;;;;29.70;42.23;101083.72;4799578;29;20197;-67
2021/09/09 09:44:03;;;;;;;26.75;16.70;;;;;;;29.55;42.16;101074.69;4801744;29;20059;-67
2021/09/09 09:46:30;;;;;;;21.83;17.23;;;;;;;29.64;42.58;101068.09;4800693;29;20043;-79
2021/09/09 09:48:56;;;;;;;25.50;17.40;;;;;;;30.47;41.47;101075.19;4802035;29;20180;-65
2021/09/09 09:51:40;;;;;;;22.52;17.20;;;;;;;30.78;40.24;101072.16;4802106;29;20034;-68
2021/09/09 09:54:08;;;;;;;23.77;16.77;;;;;;;30.98;39.64;101082.41;4801678;29;20062;-67
2021/09/09 09:56:35;;;;;;;21.27;16.23;;;;;;;30.39;40.80;101077.00;4802054;29;20095;-68
2021/09/09 09:59:00;;;;;;;21.02;15.50;;;;;;;29.52;42.51;101077.81;4801995;29;20054;-71
2021/09/09 10:01:26;;;;;;;22.83;16.63;;;;;;;29.29;42.93;101078.75;4800470;29;20039;-71
2021/09/09 10:03:53;;;;;;;21.23;15.60;;;;;;;29.85;42.65;101071.97;4802626;29;20521;-72
2021/09/09 10:06:18;;;;;;;23.90;15.70;;;;;;;30.93;41.04;101073.94;4804795;29;20031;-73
2021/09/09 10:08:44;;;;;;;20.27;15.57;;;;;;;31.02;40.07;101070.84;4797954;29;21634;-75
2021/09/09 10:11:11;;;;;;;21.90;16.38;;;;;;;30.60;41.78;101075.34;4801495;29;20035;-68
2021/09/09 10:13:38;;;;;;;20.55;16.30;;;;;;;30.12;42.57;101069.56;4802725;29;20049;-78
2021/09/09 10:16:04;;;;;;;23.48;17.10;;;;;;;30.18;43.09;101074.25;4838456;29;20042;-68
2021/09/09 11:02:56;;;;;;;21.73;16.08;;;;;;;31.76;39.53;101071.34;4948628;24;20061;-62
2021/09/09 11:05:22;;;;;;;21.05;16.67;;;;;;;31.41;40.58;101065.91;4806108;29;20043;-68
2021/09/09 11:07:47;;;;;;;24.00;16.05;;;;;;;31.24;40.42;101073.56;4810929;29;20147;-61
2021/09/09 11:10:12;;;;;;;24.60;17.33;;;;;;;30.77;41.60;101064.13;4820620;29;20034;-68
2021/09/09 11:12:40;;;;;;;25.27;16.92;;;;;;;31.40;40.93;101066.09;4821981;29;20110;-69
2021/09/09 11:15:13;;;;;;;25.92;18.38;;;;;;;30.54;42.83;101076.16;4821577;29;20130;-63
2021/09/09 11:17:39;;;;;;;23.20;16.75;;;;;;;30.99;42.55;101059.50;4821790;29;20031;-63
2021/09/09 11:20:07;;;;;;;23.02;16.65;;;;;;;31.48;41.23;101066.75;4821032;29;20129;-62
2021/09/09 11:22:34;;;;;;;25.38;16.60;;;;;;;31.48;41.76;101069.50;4819711;29;20030;-62
2021/09/09 11:25:00;;;;;;;23.38;16.67;;;;;;;31.93;41.80;101071.84;4809470;29;20045;-63
2021/09/09 11:27:35;;;;;;;34.92;21.80;;;;;;;31.95;40.37;101069.75;4820575;29;20087;-63
2021/09/09 11:30:02;;;;;;;21.70;16.05;;;;;;;32.30;40.07;101071.56;4820235;29;20113;-62
2021/09/09 11:32:30;;;;;;;24.70;17.05;;;;;;;32.35;39.70;101074.53;4819649;29;20117;-62
2021/09/09 11:35:09;;;;;;;27.48;15.50;;;;;;;32.42;40.02;101069.03;4805424;29;20043;-64
2021/09/09 11:37:47;;;;;;;39.92;20.30;;;;;;;32.28;39.18;101080.00;4810774;29;20035;-60
2021/09/09 11:40:13;;;;;;;19.00;12.48;;;;;;;32.34;39.73;101084.66;4820395;29;20127;-62
2021/09/09 11:42:39;;;;;;;22.40;15.05;;;;;;;32.53;39.33;101090.38;4819788;29;20023;-66
2021/09/09 11:45:05;;;;;;;21.63;15.25;;;;;;;32.42;39.27;101082.75;4813913;29;20082;-62
2021/09/09 11:47:30;;;;;;;18.05;12.90;;;;;;;31.94;39.34;101087.22;4818758;29;20046;-62
2021/09/09 11:50:07;;;;;;;16.23;12.30;;;;;;;31.31;41.26;101090.88;4817418;29;20424;-65